createdAt,value
2019-02-12T00:00:25.413Z,10.41
2019-02-12T00:05:30.259Z,10.41
2019-02-12T00:10:36.851Z,10.28
2019-02-12T00:15:41.171Z,9.93
2019-02-12T00:20:45.808Z,9.79
2019-02-12T00:25:50.562Z,9.48
2019-02-12T00:30:55.303Z,9.17
2019-02-12T00:36:00.044Z,9.09
2019-02-12T00:41:04.788Z,8.75
2019-02-12T00:46:09.534Z,8.08
2019-02-12T00:51:17.916Z,7.38
2019-02-12T00:56:20.443Z,7.80
2019-02-12T01:01:24.971Z,7.55
2019-02-12T01:06:29.622Z,8.02
2019-02-12T01:11:34.259Z,7.75
2019-02-12T01:16:38.900Z,8.26
2019-02-12T01:21:43.653Z,7.87
2019-02-12T01:26:48.223Z,8.19
2019-02-12T01:31:52.948Z,8.27
2019-02-12T01:36:57.471Z,7.80
2019-02-12T01:42:02.005Z,7.96
2019-02-12T01:47:06.558Z,8.02
2019-02-12T01:52:11.293Z,8.35
2019-02-12T01:57:15.932Z,7.63
2019-02-12T02:02:20.575Z,7.92
2019-02-12T02:07:25.217Z,7.44
2019-02-12T02:12:29.843Z,7.59
2019-02-12T02:17:34.693Z,7.96
2019-02-12T02:22:39.440Z,8.16
2019-02-12T02:27:44.184Z,8.41
2019-02-12T02:32:48.813Z,7.72
2019-02-12T02:37:53.568Z,7.49
2019-02-12T02:42:58.311Z,7.52
2019-02-12T02:48:03.050Z,7.88
2019-02-12T02:53:07.684Z,7.28
2019-02-12T02:58:12.435Z,7.88
2019-02-12T03:03:17.589Z,7.43
2019-02-12T03:08:22.333Z,7.73
2019-02-12T03:13:27.075Z,7.84
2019-02-12T03:18:31.725Z,7.03
2019-02-12T03:23:36.258Z,6.52
2019-02-12T03:28:40.995Z,7.45
2019-02-12T03:33:45.755Z,6.59
2019-02-12T03:38:50.380Z,6.48
2019-02-12T03:43:55.007Z,6.34
2019-02-12T03:48:59.863Z,6.89
2019-02-12T03:54:04.500Z,6.43
2019-02-12T03:59:09.245Z,6.37
2019-02-12T04:04:14.091Z,6.65
2019-02-12T04:09:18.835Z,6.45
2019-02-12T04:14:23.576Z,6.78
2019-02-12T04:19:28.203Z,6.04
2019-02-12T04:24:32.848Z,5.98
2019-02-12T04:29:37.384Z,5.76
2019-02-12T04:34:42.138Z,6.36
2019-02-12T04:39:46.877Z,6.51
2019-02-12T04:44:51.409Z,7.21
2019-02-12T04:49:56.057Z,6.95
2019-02-12T04:55:00.697Z,6.70
2019-02-12T05:00:08.720Z,6.10
2019-02-12T05:05:14.077Z,6.86
2019-02-12T05:10:27.727Z,6.42
2019-02-12T05:15:32.835Z,6.64
2019-02-12T05:20:37.419Z,7.01
2019-02-12T05:25:43.360Z,7.50
2019-02-12T05:30:48.150Z,7.60
2019-02-12T05:35:52.766Z,6.78
2019-02-12T05:40:57.514Z,7.23
2019-02-12T05:46:02.158Z,7.83
2019-02-12T05:51:06.801Z,7.61
2019-02-12T05:56:11.644Z,8.04
2019-02-12T06:01:18.024Z,8.03
2019-02-12T06:06:24.396Z,7.23
2019-02-12T06:11:29.149Z,8.14
2019-02-12T06:16:35.530Z,7.96
2019-02-12T06:21:40.478Z,7.89
2019-02-12T06:26:45.217Z,7.57
2019-02-12T06:31:50.068Z,8.09
2019-02-12T06:36:56.340Z,7.90
2019-02-12T06:42:01.196Z,7.65
2019-02-12T06:47:05.945Z,7.72
2019-02-12T06:52:10.670Z,7.47
2019-02-12T06:57:15.514Z,7.10
2019-02-12T07:02:39.413Z,6.98
2019-02-12T07:08:14.457Z,7.00
2019-02-12T07:32:50.901Z,7.09
2019-02-12T07:38:11.000Z,6.57
2019-02-12T07:43:21.683Z,7.13
2019-02-12T07:48:31.209Z,7.30
2019-02-12T07:53:53.900Z,7.25
2019-02-12T07:59:19.951Z,7.25
2019-02-12T08:04:39.848Z,7.13
2019-02-12T08:10:19.814Z,7.43
2019-02-12T08:15:42.675Z,6.91
2019-02-12T08:21:10.462Z,7.14
2019-02-12T08:26:26.970Z,7.77
2019-02-12T08:31:53.023Z,7.99
2019-02-12T08:37:03.510Z,7.67
2019-02-12T08:42:14.179Z,7.78
2019-02-12T08:47:42.886Z,7.60
2019-02-12T08:52:50.702Z,6.91
2019-02-12T08:58:01.138Z,7.36
2019-02-12T09:03:25.477Z,7.24
2019-02-12T09:08:53.362Z,7.34
2019-02-12T09:14:01.067Z,7.50
2019-02-12T09:19:28.868Z,7.47
2019-02-12T09:24:42.310Z,8.03
2019-02-12T09:30:11.519Z,8.15
2019-02-12T09:35:31.248Z,7.58
2019-02-12T09:41:00.124Z,7.97
2019-02-12T09:46:25.761Z,8.04
2019-02-12T09:52:06.851Z,7.85
2019-02-12T09:57:29.825Z,7.70
2019-02-12T10:02:40.185Z,7.97
2019-02-12T10:07:48.109Z,8.08
2019-02-12T10:13:05.251Z,8.44
2019-02-12T10:18:21.870Z,8.36
2019-02-12T10:24:05.015Z,7.34
2019-02-12T10:29:15.693Z,8.60
2019-02-12T10:34:20.201Z,7.91
2019-02-12T10:39:24.886Z,8.72
2019-02-12T10:44:29.495Z,8.39
2019-02-12T10:49:34.473Z,8.49
2019-02-12T10:54:39.309Z,8.64
2019-02-12T10:59:44.241Z,8.38
2019-02-12T11:04:48.993Z,8.76
2019-02-12T11:09:54.968Z,8.21
2019-02-12T11:14:59.812Z,8.27
2019-02-12T11:20:07.219Z,8.33
2019-02-12T11:25:12.119Z,8.10
2019-02-12T11:30:17.118Z,7.50
2019-02-12T11:55:15.486Z,8.85
2019-02-12T12:00:24.766Z,9.15
2019-02-12T12:05:29.700Z,8.81
2019-02-12T12:10:34.361Z,8.87
2019-02-12T12:15:39.482Z,9.00
2019-02-12T12:20:44.259Z,8.70
2019-02-12T12:25:49.107Z,8.48
2019-02-12T12:30:53.844Z,8.06
2019-02-12T12:35:58.584Z,8.55
2019-02-12T12:41:03.430Z,8.31
2019-02-12T12:46:08.187Z,7.85
2019-02-12T12:51:13.219Z,8.18
2019-02-12T12:56:17.883Z,8.49
2019-02-12T13:01:22.609Z,8.72
2019-02-12T13:06:28.340Z,8.24
2019-02-12T13:11:33.423Z,8.42
2019-02-12T13:16:38.051Z,7.90
2019-02-12T13:21:43.502Z,8.66
2019-02-12T13:26:48.266Z,8.38
2019-02-12T13:31:53.006Z,7.92
2019-02-12T13:36:57.760Z,8.04
2019-02-12T13:42:02.699Z,7.50
2019-02-12T13:47:07.543Z,7.62
2019-02-12T13:52:12.387Z,8.47
2019-02-12T13:57:17.237Z,8.26
2019-02-12T14:02:21.903Z,8.06
2019-02-12T14:07:27.645Z,8.26
2019-02-12T14:12:32.382Z,8.30
2019-02-12T14:17:37.235Z,7.73
2019-02-12T14:22:42.388Z,8.29
2019-02-12T14:27:47.228Z,8.33
2019-02-12T14:32:52.500Z,8.55
2019-02-12T14:37:57.324Z,8.62
2019-02-12T14:43:02.174Z,8.24
2019-02-12T14:48:07.120Z,8.33
2019-02-12T14:53:12.438Z,7.98
2019-02-12T14:58:17.115Z,8.10
2019-02-12T15:03:21.717Z,8.25
2019-02-12T15:08:26.408Z,8.44
2019-02-12T15:13:31.039Z,8.36
2019-02-12T15:18:35.780Z,8.19
2019-02-12T15:23:40.628Z,7.57
2019-02-12T15:28:46.605Z,7.52
2019-02-12T15:33:51.443Z,7.79
2019-02-12T15:38:56.292Z,7.62
2019-02-12T15:44:02.260Z,7.66
2019-02-12T15:49:07.851Z,7.93
2019-02-12T15:54:15.442Z,8.02
2019-02-12T15:59:21.395Z,7.47
2019-02-12T16:04:26.249Z,6.20
2019-02-12T16:09:31.649Z,7.26
2019-02-12T16:14:40.181Z,7.79
2019-02-12T16:19:46.937Z,8.09
2019-02-12T16:24:51.478Z,8.27
2019-02-12T16:29:56.424Z,8.44
2019-02-12T16:35:02.605Z,8.42
2019-02-12T16:40:15.614Z,8.18
2019-02-12T16:45:23.441Z,8.18
2019-02-12T16:50:28.186Z,8.19
2019-02-12T16:55:34.567Z,8.10
2019-02-12T17:00:39.746Z,7.78
2019-02-12T17:05:44.564Z,7.43
2019-02-12T17:10:49.895Z,7.75
2019-02-12T17:15:54.662Z,7.08
2019-02-12T17:21:01.081Z,7.63
2019-02-12T17:26:06.372Z,7.63
2019-02-12T17:31:12.109Z,7.28
2019-02-12T17:36:17.119Z,7.88
2019-02-12T17:41:23.930Z,8.22
2019-02-12T17:46:28.905Z,7.48
2019-02-12T17:51:33.984Z,7.54
2019-02-12T17:56:39.361Z,7.26
2019-02-12T18:01:44.753Z,7.36
2019-02-12T18:06:50.099Z,7.52
2019-02-12T18:11:54.761Z,7.35
2019-02-12T18:16:59.565Z,6.96
2019-02-12T18:22:04.308Z,6.14
2019-02-12T18:27:09.064Z,6.20
2019-02-12T18:32:13.796Z,6.80
2019-02-12T18:37:20.255Z,7.42
2019-02-12T18:42:25.122Z,7.93
2019-02-12T18:47:31.521Z,8.07
2019-02-12T18:52:36.110Z,7.78
2019-02-12T18:57:40.991Z,7.98
2019-02-12T19:02:49.590Z,7.96
2019-02-12T19:07:54.976Z,7.27
2019-02-12T19:13:00.246Z,7.76
2019-02-12T19:18:10.629Z,7.53
2019-02-12T19:23:15.573Z,7.63
2019-02-12T19:28:22.734Z,7.73
2019-02-12T19:33:27.706Z,7.44
2019-02-12T19:38:32.793Z,7.58
2019-02-12T19:43:38.651Z,7.14
2019-02-12T19:48:44.233Z,6.96
2019-02-12T19:53:49.107Z,6.74
2019-02-12T19:58:53.885Z,7.12
2019-02-12T20:03:58.618Z,7.35
2019-02-12T20:09:04.899Z,6.97
2019-02-12T20:14:11.298Z,7.56
2019-02-12T20:19:16.647Z,7.71
2019-02-12T20:24:21.902Z,7.77
2019-02-12T20:29:26.739Z,7.69
2019-02-12T20:34:31.707Z,7.51
2019-02-12T20:39:36.402Z,7.49
2019-02-12T20:44:41.280Z,7.52
2019-02-12T20:49:46.260Z,7.29
2019-02-12T20:54:52.298Z,7.15
2019-02-12T20:59:57.044Z,7.29
2019-02-12T21:05:01.990Z,7.28
2019-02-12T21:10:12.310Z,7.35
2019-02-12T21:15:27.364Z,6.76
2019-02-12T21:20:32.288Z,6.77
2019-02-12T21:25:37.054Z,6.89
2019-02-12T21:30:42.765Z,5.79
2019-02-12T21:35:47.639Z,6.96
2019-02-12T21:40:52.911Z,6.42
2019-02-12T21:45:57.540Z,7.22
2019-02-12T21:51:03.817Z,7.13
2019-02-12T21:56:08.560Z,7.08
2019-02-12T22:01:13.306Z,7.01
2019-02-12T22:06:19.106Z,7.22
2019-02-12T22:11:23.718Z,6.97
2019-02-12T22:16:28.449Z,6.97
2019-02-12T22:21:33.631Z,6.60
2019-02-12T22:26:38.365Z,6.97
2019-02-12T22:31:42.986Z,5.83
2019-02-12T22:36:47.625Z,6.13
2019-02-12T22:41:54.227Z,6.38
2019-02-12T22:46:58.955Z,6.59
2019-02-12T22:52:03.716Z,5.77
2019-02-12T22:57:08.341Z,5.72
2019-02-12T23:02:13.079Z,5.23
2019-02-12T23:07:17.736Z,5.63
2019-02-12T23:12:22.465Z,5.35
2019-02-12T23:17:27.386Z,5.04
2019-02-12T23:22:32.154Z,5.01
2019-02-12T23:27:37.923Z,5.18
2019-02-12T23:32:42.663Z,3.83
2019-02-12T23:37:47.409Z,4.32
2019-02-12T23:42:53.173Z,4.42
2019-02-12T23:47:57.913Z,4.47
2019-02-12T23:53:02.653Z,4.74
2019-02-12T23:58:07.426Z,4.27
